Time;durP1;ratioP1;P1;durP2;ratioP2;P2;SDS_P1;SDS_P2;PMS_P1;PMS_P2;Temp;Humidity;BMP_temperature;BMP_pressure;BME280_temperature;BME280_humidity;BME280_pressure;Samples;Min_cycle;Max_cycle;Signal;HPM_P1;HPM_P2
2022/06/25 00:02:24;;;;;;;3.25;2.20;;;23.80;70.10;;;;;;5072654;28;20123;-60
2022/06/25 00:07:33;;;;;;;3.08;1.95;;;23.70;70.00;;;;;;5072616;28;20091;-60
2022/06/25 00:09:59;;;;;;;3.80;2.10;;;23.70;70.00;;;;;;5071886;28;20492;-60
2022/06/25 00:12:33;;;;;;;3.35;2.10;;;23.70;70.00;;;;;;5071318;28;20043;-60
2022/06/25 00:15:00;;;;;;;2.53;2.03;;;23.70;69.90;;;;;;5071948;28;20047;-60
2022/06/25 00:17:26;;;;;;;2.70;1.92;;;23.70;69.90;;;;;;5072050;28;20045;-60
2022/06/25 00:19:52;;;;;;;3.60;1.90;;;23.70;69.90;;;;;;5071734;28;20044;-59
2022/06/25 00:22:17;;;;;;;2.97;1.90;;;23.70;69.90;;;;;;5072407;28;20521;-60
2022/06/25 00:24:43;;;;;;;2.85;2.17;;;23.70;69.80;;;;;;5071829;28;20052;-60
2022/06/25 00:27:08;;;;;;;3.03;2.00;;;23.70;69.80;;;;;;5072289;28;20048;-60
2022/06/25 00:29:34;;;;;;;2.78;2.00;;;23.70;69.80;;;;;;5072297;28;20040;-60
2022/06/25 00:31:59;;;;;;;2.85;1.92;;;23.70;69.80;;;;;;5071458;28;20057;-60
2022/06/25 00:34:26;;;;;;;2.95;2.20;;;23.70;69.80;;;;;;5072317;28;20178;-60
2022/06/25 00:36:52;;;;;;;3.25;2.05;;;23.70;69.70;;;;;;5072222;28;20051;-60
2022/06/25 00:39:17;;;;;;;3.35;2.20;;;23.70;69.70;;;;;;5072032;28;20040;-60
2022/06/25 00:41:43;;;;;;;3.80;2.00;;;23.70;69.70;;;;;;5071405;28;20048;-60
2022/06/25 00:44:09;;;;;;;3.58;2.30;;;23.70;69.70;;;;;;5072314;28;20048;-60
2022/06/25 00:46:35;;;;;;;2.80;2.00;;;23.70;69.60;;;;;;5071726;28;20048;-60
2022/06/25 00:49:01;;;;;;;4.18;2.13;;;23.70;69.60;;;;;;5071839;28;20056;-60
2022/06/25 00:51:27;;;;;;;2.70;2.00;;;23.60;69.50;;;;;;5072462;28;20040;-60
2022/06/25 00:53:53;;;;;;;3.13;1.90;;;23.70;69.60;;;;;;5071246;28;20108;-60
2022/06/25 00:56:18;;;;;;;1.70;1.50;;;23.70;69.60;;;;;;5070570;28;20045;-60
2022/06/25 00:58:44;;;;;;;2.95;2.10;;;23.60;69.60;;;;;;5071445;28;20056;-60
2022/06/25 01:01:10;;;;;;;3.45;1.75;;;23.60;69.50;;;;;;5076113;28;20507;-60
2022/06/25 01:03:36;;;;;;;2.72;1.80;;;23.70;69.60;;;;;;5073859;28;20131;-60
2022/06/25 01:06:02;;;;;;;2.95;1.90;;;23.70;69.60;;;;;;5074803;28;20507;-60
2022/06/25 01:08:28;;;;;;;3.05;2.20;;;23.60;69.60;;;;;;5075867;28;20045;-60
2022/06/25 01:10:53;;;;;;;3.40;2.10;;;23.70;69.60;;;;;;5075148;28;20036;-60
2022/06/25 01:13:21;;;;;;;3.35;1.88;;;23.60;69.40;;;;;;5057203;28;20040;-60
2022/06/25 01:15:47;;;;;;;2.90;2.03;;;23.60;69.40;;;;;;5075107;28;20032;-60
2022/06/25 01:18:13;;;;;;;3.88;1.95;;;23.60;69.40;;;;;;5074792;28;20049;-60
2022/06/25 01:20:38;;;;;;;2.55;1.75;;;23.60;69.40;;;;;;5075084;28;20040;-60
2022/06/25 01:23:04;;;;;;;2.78;1.90;;;23.60;69.40;;;;;;5074762;28;20052;-60
2022/06/25 01:25:34;;;;;;;3.15;2.15;;;23.60;69.40;;;;;;5075614;28;20056;-59
2022/06/25 01:28:00;;;;;;;3.78;2.00;;;23.60;69.30;;;;;;5074785;28;20060;-60
2022/06/25 01:30:26;;;;;;;2.25;1.80;;;23.60;69.30;;;;;;5075153;28;20036;-60
2022/06/25 01:32:52;;;;;;;3.05;1.88;;;23.60;69.30;;;;;;5075247;28;20511;-60
2022/06/25 01:35:17;;;;;;;2.88;1.75;;;23.60;69.20;;;;;;5074869;28;20481;-59
2022/06/25 01:37:43;;;;;;;2.58;1.90;;;23.60;69.20;;;;;;5074682;28;20049;-60
2022/06/25 01:40:09;;;;;;;2.70;2.00;;;23.60;69.20;;;;;;5075492;28;20131;-59
2022/06/25 01:45:18;;;;;;;2.83;1.63;;;23.60;69.10;;;;;;5074931;28;20146;-60
2022/06/25 01:47:44;;;;;;;2.38;1.80;;;23.60;69.10;;;;;;5075256;28;20084;-60
2022/06/25 01:50:10;;;;;;;3.08;1.98;;;23.60;69.00;;;;;;5074602;28;20040;-60
2022/06/25 01:52:35;;;;;;;2.78;1.50;;;23.60;69.00;;;;;;5107502;28;20041;-60
2022/06/25 01:55:01;;;;;;;2.83;1.60;;;23.60;69.00;;;;;;5074231;28;20049;-61
2022/06/25 01:57:26;;;;;;;3.28;1.80;;;23.60;69.00;;;;;;5074897;28;20055;-60
2022/06/25 01:59:52;;;;;;;2.30;1.58;;;23.60;69.00;;;;;;5074067;28;20131;-60
2022/06/25 02:02:17;;;;;;;1.90;1.70;;;23.50;68.80;;;;;;5054621;28;20120;-60
2022/06/25 02:04:43;;;;;;;2.33;1.65;;;23.50;68.90;;;;;;5054164;28;20040;-60
2022/06/25 02:07:09;;;;;;;2.10;1.48;;;23.50;68.80;;;;;;5054368;28;20135;-61
2022/06/25 02:09:34;;;;;;;3.22;1.83;;;23.50;68.80;;;;;;5054147;28;20076;-60
2022/06/25 02:12:00;;;;;;;2.17;1.70;;;23.50;68.80;;;;;;5054517;28;20049;-60
2022/06/25 02:14:26;;;;;;;2.38;1.60;;;23.50;68.80;;;;;;5086733;28;20049;-60
2022/06/25 02:16:55;;;;;;;2.55;1.85;;;23.50;69.40;;;;;;5053894;28;20040;-61
2022/06/25 02:19:20;;;;;;;2.78;1.80;;;23.50;69.50;;;;;;5054101;28;20203;-60
2022/06/25 02:21:46;;;;;;;2.75;1.88;;;23.50;68.80;;;;;;5054237;28;20116;-60
2022/06/25 02:24:11;;;;;;;2.13;1.63;;;23.50;68.80;;;;;;5053893;28;20056;-60
2022/06/25 02:26:37;;;;;;;2.20;1.67;;;23.50;68.80;;;;;;5054061;28;20045;-60
2022/06/25 02:29:02;;;;;;;2.97;2.00;;;23.50;68.80;;;;;;5053828;28;20051;-60
2022/06/25 02:31:28;;;;;;;2.03;1.63;;;23.50;68.80;;;;;;5053759;28;20044;-60
2022/06/25 02:33:54;;;;;;;3.65;2.10;;;23.50;68.70;;;;;;5053838;28;20033;-60
2022/06/25 02:36:19;;;;;;;2.38;1.55;;;23.50;68.80;;;;;;5053775;28;20111;-60
2022/06/25 02:38:45;;;;;;;2.47;1.80;;;23.50;68.70;;;;;;5053493;28;20059;-60
2022/06/25 02:41:11;;;;;;;2.55;1.55;;;23.50;68.80;;;;;;5054111;28;20529;-60
2022/06/25 02:43:36;;;;;;;2.83;1.80;;;23.50;68.70;;;;;;5053725;28;20436;-60
2022/06/25 02:46:02;;;;;;;2.10;1.80;;;23.50;68.70;;;;;;5053314;28;20048;-60
2022/06/25 02:48:28;;;;;;;1.98;1.67;;;23.40;68.70;;;;;;5053982;28;20037;-60
2022/06/25 02:50:53;;;;;;;2.00;1.60;;;23.40;68.70;;;;;;5053938;28;20052;-60
2022/06/25 02:53:19;;;;;;;2.22;1.65;;;23.40;68.60;;;;;;5053635;28;20045;-60
2022/06/25 03:01:13;;;;;;;2.40;1.80;;;23.40;68.60;;;;;;5053414;28;20124;-60
2022/06/25 03:03:39;;;;;;;2.92;1.80;;;23.40;68.60;;;;;;5053359;28;20124;-60
2022/06/25 03:06:04;;;;;;;2.53;1.70;;;23.40;68.60;;;;;;5052727;28;20037;-60
2022/06/25 03:08:30;;;;;;;2.28;1.77;;;23.40;68.50;;;;;;5053502;28;20049;-60
2022/06/25 03:10:55;;;;;;;2.45;1.80;;;23.40;68.50;;;;;;5053131;28;20033;-60
2022/06/25 03:13:21;;;;;;;2.03;1.63;;;23.40;68.50;;;;;;5053184;28;20075;-60
2022/06/25 03:15:46;;;;;;;3.03;1.65;;;23.40;68.50;;;;;;5052999;28;20385;-60
2022/06/25 03:18:12;;;;;;;2.45;1.88;;;23.40;69.10;;;;;;5053423;28;20043;-60
2022/06/25 03:20:38;;;;;;;2.45;1.75;;;23.40;68.50;;;;;;5052459;28;20037;-60
2022/06/25 03:23:03;;;;;;;3.25;2.08;;;23.40;68.40;;;;;;5052273;28;20068;-60
2022/06/25 03:25:29;;;;;;;2.75;1.92;;;23.40;68.50;;;;;;5053358;28;20048;-60
2022/06/25 03:27:54;;;;;;;2.95;1.83;;;23.40;68.40;;;;;;5052409;28;20489;-60
2022/06/25 03:30:21;;;;;;;2.50;1.65;;;23.40;68.40;;;;;;5052701;28;20045;-60
2022/06/25 03:32:46;;;;;;;2.53;1.88;;;23.40;68.40;;;;;;5053023;28;20052;-60
2022/06/25 03:35:12;;;;;;;2.78;1.88;;;23.40;68.40;;;;;;5052697;28;20128;-60
2022/06/25 03:37:37;;;;;;;2.72;2.10;;;23.40;68.40;;;;;;5052640;28;20037;-60
2022/06/25 03:40:03;;;;;;;2.83;1.85;;;23.40;68.40;;;;;;5052611;28;20044;-60
2022/06/25 03:42:28;;;;;;;2.60;1.70;;;23.40;68.40;;;;;;5052577;28;20041;-61
2022/06/25 03:44:54;;;;;;;2.85;1.90;;;23.40;68.40;;;;;;5052480;28;20076;-60
2022/06/25 03:47:19;;;;;;;2.53;2.17;;;23.40;68.40;;;;;;5053112;28;20083;-60
2022/06/25 03:49:45;;;;;;;3.83;2.00;;;23.40;68.40;;;;;;5052115;28;20045;-60
2022/06/25 03:52:11;;;;;;;2.42;1.65;;;23.40;68.40;;;;;;5052754;28;20409;-60
2022/06/25 03:54:36;;;;;;;2.83;1.88;;;23.40;68.30;;;;;;5052229;28;20041;-60
2022/06/25 03:57:03;;;;;;;3.08;1.95;;;23.30;68.30;;;;;;5052399;28;20119;-60
2022/06/25 03:59:29;;;;;;;2.90;1.90;;;23.40;68.30;;;;;;5052605;28;20133;-60
2022/06/25 04:01:54;;;;;;;3.33;2.20;;;23.40;68.40;;;;;;5060592;28;20155;-60
2022/06/25 04:04:20;;;;;;;2.58;1.80;;;23.40;68.40;;;;;;5069766;28;20123;-60
2022/06/25 04:06:46;;;;;;;2.42;1.70;;;23.30;68.40;;;;;;5071528;28;20041;-60
2022/06/25 04:09:11;;;;;;;3.13;2.20;;;23.30;68.30;;;;;;5071783;28;20044;-60
2022/06/25 04:11:37;;;;;;;2.15;1.65;;;23.30;68.30;;;;;;5072626;28;20041;-60
2022/06/25 04:14:03;;;;;;;3.33;1.77;;;23.30;68.30;;;;;;5072335;28;20041;-60
2022/06/25 04:16:28;;;;;;;2.97;1.90;;;23.30;68.40;;;;;;5072091;28;20041;-61
2022/06/25 04:18:54;;;;;;;2.78;1.88;;;23.30;68.40;;;;;;5072024;28;20119;-60
2022/06/25 04:21:19;;;;;;;4.30;2.13;;;23.30;68.50;;;;;;5072701;28;20124;-60
2022/06/25 04:23:45;;;;;;;3.08;1.88;;;23.30;68.50;;;;;;5071436;28;20143;-60
2022/06/25 04:26:10;;;;;;;3.33;1.80;;;23.30;68.60;;;;;;5072249;28;20140;-60
2022/06/25 04:31:20;;;;;;;3.65;1.90;;;23.40;68.70;;;;;;5072014;28;20040;-60
2022/06/25 04:33:45;;;;;;;3.40;2.15;;;23.40;68.70;;;;;;5072373;28;20048;-60
2022/06/25 04:36:11;;;;;;;2.50;2.03;;;23.40;68.60;;;;;;5076714;28;20060;-60
2022/06/25 04:38:37;;;;;;;2.42;1.90;;;23.40;68.60;;;;;;5076180;28;20135;-60
2022/06/25 04:41:02;;;;;;;3.40;1.90;;;23.40;68.60;;;;;;5075805;28;20142;-60
2022/06/25 04:43:28;;;;;;;3.28;2.00;;;23.40;68.60;;;;;;5075969;28;20048;-60
2022/06/25 04:45:53;;;;;;;3.60;2.00;;;23.40;68.60;;;;;;5075081;28;20041;-60
2022/06/25 04:48:19;;;;;;;3.13;1.80;;;23.40;68.50;;;;;;5075279;28;20055;-60
2022/06/25 04:50:45;;;;;;;3.30;2.10;;;23.40;68.60;;;;;;5076206;28;20044;-60
2022/06/25 04:53:11;;;;;;;3.85;2.10;;;23.40;68.50;;;;;;5075742;28;20447;-60
2022/06/25 04:55:37;;;;;;;2.33;1.73;;;23.50;68.50;;;;;;5075955;28;20040;-60
2022/06/25 04:58:02;;;;;;;3.55;1.70;;;23.40;68.40;;;;;;5075341;28;20047;-60
2022/06/25 05:00:28;;;;;;;3.00;1.95;;;23.40;68.40;;;;;;5075788;28;20037;-60
2022/06/25 05:02:53;;;;;;;3.05;1.90;;;23.50;68.50;;;;;;5075448;28;20071;-60
2022/06/25 05:05:19;;;;;;;4.07;2.20;;;23.50;68.50;;;;;;5075124;28;20051;-60
2022/06/25 05:07:44;;;;;;;2.95;2.10;;;23.50;68.50;;;;;;5075042;28;20071;-60
2022/06/25 05:10:10;;;;;;;2.67;1.90;;;23.50;68.40;;;;;;5076031;28;20040;-60
2022/06/25 05:15:21;;;;;;;4.07;2.28;;;23.50;68.40;;;;;;5075353;28;20048;-60
2022/06/25 05:17:47;;;;;;;3.03;1.85;;;23.60;68.50;;;;;;5075220;28;20050;-60
2022/06/25 05:20:12;;;;;;;4.40;2.05;;;23.50;68.40;;;;;;5075297;28;20056;-60
2022/06/25 05:22:38;;;;;;;2.55;1.67;;;23.60;68.50;;;;;;5075306;28;20101;-60
2022/06/25 05:25:04;;;;;;;2.28;1.80;;;23.60;68.50;;;;;;5075330;28;20051;-60
2022/06/25 05:27:30;;;;;;;3.00;2.00;;;23.60;68.50;;;;;;5075077;28;20127;-60
2022/06/25 05:29:55;;;;;;;2.63;1.80;;;23.60;68.40;;;;;;5074323;28;20547;-59
2022/06/25 05:32:21;;;;;;;2.28;1.80;;;23.60;68.40;;;;;;5075377;28;20503;-60
2022/06/25 05:34:48;;;;;;;2.75;1.73;;;23.60;68.30;;;;;;5074698;28;20051;-60
2022/06/25 05:37:14;;;;;;;3.60;1.60;;;23.60;68.30;;;;;;5075385;28;20037;-60
2022/06/25 05:39:40;;;;;;;2.92;1.55;;;23.60;68.40;;;;;;5073876;28;20391;-61
2022/06/25 05:42:05;;;;;;;3.55;1.92;;;23.60;68.30;;;;;;5074736;28;20075;-60
2022/06/25 05:44:31;;;;;;;3.65;1.80;;;23.60;68.30;;;;;;5074511;28;20037;-60
2022/06/25 05:46:57;;;;;;;3.05;2.05;;;23.70;68.40;;;;;;5074725;28;20097;-60
2022/06/25 05:49:22;;;;;;;2.00;1.33;;;23.60;68.30;;;;;;5074705;28;20109;-60
2022/06/25 05:51:48;;;;;;;3.08;1.80;;;23.70;68.30;;;;;;5074794;28;20045;-60
2022/06/25 05:54:13;;;;;;;4.60;1.88;;;23.70;68.30;;;;;;5074843;28;20128;-60
2022/06/25 05:56:39;;;;;;;2.45;1.65;;;23.70;68.30;;;;;;5075008;28;20083;-60
2022/06/25 05:59:04;;;;;;;3.08;1.90;;;23.70;68.30;;;;;;5074491;28;20083;-60
2022/06/25 06:01:30;;;;;;;2.88;1.67;;;23.70;68.30;;;;;;5074457;28;20040;-61
2022/06/25 06:03:56;;;;;;;2.97;1.80;;;23.70;68.30;;;;;;5074492;28;20052;-60
2022/06/25 06:06:21;;;;;;;3.35;1.83;;;23.70;68.20;;;;;;5075002;28;20132;-60
2022/06/25 06:08:47;;;;;;;2.67;1.50;;;23.70;68.30;;;;;;5074097;28;20043;-60
2022/06/25 06:11:12;;;;;;;2.47;1.77;;;23.70;68.20;;;;;;5074465;28;20067;-61
2022/06/25 06:13:38;;;;;;;2.30;1.50;;;23.70;68.20;;;;;;5074752;28;20040;-60
2022/06/25 06:16:03;;;;;;;2.72;1.67;;;23.70;68.20;;;;;;5073559;28;20515;-60
2022/06/25 06:18:29;;;;;;;2.97;1.92;;;23.80;68.30;;;;;;5074562;28;20480;-60
2022/06/25 06:20:54;;;;;;;3.35;1.85;;;23.80;68.30;;;;;;5074444;28;20079;-60
2022/06/25 06:23:20;;;;;;;3.63;2.28;;;23.80;68.20;;;;;;5073823;28;20059;-60
2022/06/25 06:25:46;;;;;;;3.15;1.88;;;23.80;68.20;;;;;;5073672;28;20044;-60
2022/06/25 06:28:11;;;;;;;3.00;1.50;;;23.80;68.20;;;;;;5074084;28;20052;-60
2022/06/25 06:30:37;;;;;;;2.80;1.67;;;23.80;68.20;;;;;;5073726;28;20119;-60
2022/06/25 06:33:03;;;;;;;1.98;1.52;;;23.80;68.20;;;;;;5073895;28;20165;-60
2022/06/25 06:35:28;;;;;;;2.55;1.70;;;23.80;68.20;;;;;;5074279;28;20041;-60
2022/06/25 06:37:54;;;;;;;3.63;1.83;;;23.80;68.20;;;;;;5072754;28;20484;-65
2022/06/25 06:40:19;;;;;;;3.28;1.63;;;23.80;68.20;;;;;;5073811;28;20500;-62
2022/06/25 06:42:45;;;;;;;3.33;2.05;;;23.80;68.20;;;;;;5073709;28;20041;-61
2022/06/25 06:45:11;;;;;;;6.05;2.33;;;23.80;68.10;;;;;;5073443;28;20123;-62
2022/06/25 06:47:36;;;;;;;6.05;2.80;;;23.80;67.90;;;;;;5073519;28;20115;-61
2022/06/25 06:50:02;;;;;;;4.53;2.60;;;23.70;67.50;;;;;;5073861;28;20142;-61
2022/06/25 06:52:27;;;;;;;4.03;2.13;;;23.70;67.20;;;;;;5073318;28;20068;-61
2022/06/25 06:54:53;;;;;;;4.32;2.47;;;23.60;66.90;;;;;;5073262;28;20048;-60
2022/06/25 06:57:19;;;;;;;5.55;2.90;;;23.60;66.80;;;;;;5073187;28;20068;-60
2022/06/25 06:59:44;;;;;;;4.28;2.30;;;23.50;66.90;;;;;;5072521;28;20040;-61
2022/06/25 07:02:10;;;;;;;8.95;2.72;;;23.50;67.00;;;;;;5073663;28;20036;-61
2022/06/25 07:04:35;;;;;;;4.10;1.98;;;23.40;66.90;;;;;;5073038;28;20063;-60
2022/06/25 07:07:01;;;;;;;6.30;2.72;;;23.40;67.10;;;;;;5073054;28;20159;-61
2022/06/25 07:09:27;;;;;;;6.22;2.60;;;23.40;66.80;;;;;;5073764;28;20036;-60
2022/06/25 07:11:52;;;;;;;4.13;2.42;;;23.30;66.60;;;;;;5071216;28;20123;-64
2022/06/25 07:14:18;;;;;;;6.10;2.80;;;23.30;66.70;;;;;;5071581;28;20047;-66
2022/06/25 07:16:43;;;;;;;5.47;2.50;;;23.30;66.80;;;;;;5072993;28;20040;-66
2022/06/25 07:19:12;;;;;;;4.20;2.20;;;23.30;66.70;;;;;;5072816;28;20032;-66
2022/06/25 07:21:37;;;;;;;5.72;2.08;;;23.20;66.70;;;;;;5072995;28;20045;-66
2022/06/25 07:24:03;;;;;;;5.47;2.63;;;23.20;66.70;;;;;;5072669;28;20056;-66
2022/06/25 07:26:29;;;;;;;4.47;2.10;;;23.20;66.80;;;;;;5071499;28;20059;-65
2022/06/25 07:28:54;;;;;;;5.30;1.80;;;23.20;66.90;;;;;;5072563;28;20056;-64
2022/06/25 07:31:20;;;;;;;5.72;2.33;;;23.20;66.80;;;;;;5072909;28;20072;-65
2022/06/25 07:33:46;;;;;;;3.53;1.80;;;23.20;66.70;;;;;;5072384;28;20040;-66
2022/06/25 07:36:11;;;;;;;3.75;2.20;;;23.20;66.70;;;;;;5071663;28;20067;-65
2022/06/25 07:38:37;;;;;;;5.18;1.65;;;23.10;66.40;;;;;;5072458;28;20033;-65
2022/06/25 07:41:03;;;;;;;6.47;2.20;;;23.10;66.30;;;;;;5101712;28;20066;-65
2022/06/25 07:43:28;;;;;;;6.30;2.08;;;23.10;66.30;;;;;;5071068;28;20112;-65
2022/06/25 07:45:55;;;;;;;5.68;1.83;;;23.10;66.20;;;;;;5072419;28;20040;-66
2022/06/25 07:48:21;;;;;;;5.90;2.50;;;23.10;66.40;;;;;;5072823;28;20052;-66
2022/06/25 07:53:31;;;;;;;5.47;2.25;;;23.00;66.70;;;;;;5072772;28;20048;-66
2022/06/25 07:55:56;;;;;;;4.40;1.88;;;23.00;67.40;;;;;;5071787;28;20055;-62
2022/06/25 07:58:23;;;;;;;5.10;1.50;;;23.00;66.70;;;;;;5072943;28;20040;-62
2022/06/25 08:00:49;;;;;;;8.00;2.00;;;23.00;66.70;;;;;;5071766;28;20072;-62
2022/06/25 08:03:15;;;;;;;5.22;1.52;;;23.00;66.90;;;;;;5072570;28;20472;-62
2022/06/25 08:05:40;;;;;;;6.55;1.77;;;23.10;67.10;;;;;;5072480;28;20037;-64
2022/06/25 08:08:06;;;;;;;3.35;1.50;;;23.10;67.10;;;;;;5072017;28;20529;-62
2022/06/25 08:10:31;;;;;;;6.60;1.70;;;23.20;67.20;;;;;;5072139;28;20049;-63
2022/06/25 08:12:57;;;;;;;4.40;2.00;;;23.20;67.10;;;;;;5072359;28;20064;-64
2022/06/25 08:15:23;;;;;;;2.92;1.40;;;23.20;67.00;;;;;;5071627;28;20072;-63
2022/06/25 08:17:48;;;;;;;2.83;1.52;;;23.20;67.00;;;;;;5072124;28;20049;-64
2022/06/25 08:20:14;;;;;;;5.82;1.50;;;23.30;67.00;;;;;;5072642;28;20179;-62
2022/06/25 08:22:40;;;;;;;4.85;1.70;;;23.30;66.90;;;;;;5071532;28;20131;-61
2022/06/25 08:25:07;;;;;;;4.50;1.85;;;23.30;66.70;;;;;;5071954;28;20377;-63
2022/06/25 08:27:33;;;;;;;4.45;1.63;;;23.30;66.50;;;;;;5072369;28;20049;-63
2022/06/25 08:29:59;;;;;;;3.40;1.40;;;23.40;66.40;;;;;;5071581;28;20811;-62
2022/06/25 08:32:25;;;;;;;3.38;1.63;;;23.40;66.30;;;;;;5072047;28;20037;-62
2022/06/25 08:34:50;;;;;;;5.72;1.85;;;23.40;66.00;;;;;;5071772;28;20044;-62
2022/06/25 08:37:16;;;;;;;5.25;1.70;;;23.40;65.90;;;;;;5072074;28;20094;-61
2022/06/25 08:39:42;;;;;;;3.42;1.95;;;23.40;66.40;;;;;;5071496;28;20522;-61
2022/06/25 08:42:07;;;;;;;2.55;1.42;;;23.40;65.80;;;;;;5072006;28;20033;-60
2022/06/25 08:44:33;;;;;;;3.88;1.85;;;23.50;65.80;;;;;;5070875;28;20373;-62
2022/06/25 08:46:59;;;;;;;3.78;1.80;;;23.50;65.80;;;;;;5071313;28;20044;-62
2022/06/25 08:49:26;;;;;;;4.75;1.98;;;23.50;65.80;;;;;;5072161;28;20060;-61
2022/06/25 08:51:55;;;;;;;4.70;2.00;;;23.50;65.80;;;;;;5071234;28;20475;-62
2022/06/25 08:54:20;;;;;;;3.45;1.88;;;23.60;65.80;;;;;;5072056;28;20036;-62
2022/06/25 08:56:46;;;;;;;3.58;1.65;;;23.60;65.80;;;;;;5070651;28;20040;-61
2022/06/25 08:59:12;;;;;;;2.78;1.60;;;23.60;65.80;;;;;;5071285;28;20043;-62
2022/06/25 09:01:37;;;;;;;4.32;2.30;;;23.60;65.70;;;;;;5072366;28;20094;-62
2022/06/25 09:04:03;;;;;;;3.78;1.92;;;23.60;65.60;;;;;;5071393;28;20361;-61
2022/06/25 09:06:29;;;;;;;3.45;1.70;;;23.60;65.60;;;;;;5071159;28;20078;-61
2022/06/25 09:09:09;;;;;;;5.32;1.80;;;23.60;65.50;;;;;;5071316;28;20484;-62
2022/06/25 09:11:54;;;;;;;3.67;1.50;;;23.60;65.50;;;;;;5070115;28;20113;-60
2022/06/25 09:14:21;;;;;;;5.03;1.75;;;23.60;65.30;;;;;;5071372;28;20493;-61
2022/06/25 09:17:04;;;;;;;3.10;1.85;;;23.60;65.40;;;;;;5071677;28;20085;-61
2022/06/25 09:19:34;;;;;;;3.10;1.65;;;23.60;65.40;;;;;;5072594;28;20174;-62
2022/06/25 09:22:00;;;;;;;2.55;1.48;;;23.60;65.40;;;;;;5075025;28;20052;-62
2022/06/25 09:24:43;;;;;;;4.53;1.63;;;23.60;65.30;;;;;;5074499;28;20093;-62
2022/06/25 09:27:09;;;;;;;3.97;1.83;;;23.70;65.30;;;;;;5074565;28;20056;-63
2022/06/25 09:29:45;;;;;;;6.38;1.73;;;23.70;65.40;;;;;;5075390;28;20032;-62
2022/06/25 09:32:11;;;;;;;6.32;2.08;;;23.70;65.50;;;;;;5074857;28;20044;-63
2022/06/25 09:34:37;;;;;;;5.03;1.70;;;23.70;65.60;;;;;;5074962;28;20090;-61
2022/06/25 09:37:17;;;;;;;3.40;1.63;;;23.70;65.60;;;;;;5074746;28;20076;-62
2022/06/25 09:39:45;;;;;;;5.80;1.85;;;23.70;65.70;;;;;;5074690;28;20036;-63
2022/06/25 09:42:23;;;;;;;3.73;1.67;;;23.80;65.90;;;;;;5075016;28;20044;-63
2022/06/25 09:44:50;;;;;;;3.08;1.50;;;23.80;65.90;;;;;;5074938;28;20040;-62
2022/06/25 09:47:16;;;;;;;3.30;1.60;;;23.80;65.90;;;;;;5073244;28;20048;-63
2022/06/25 09:49:41;;;;;;;3.22;1.63;;;23.80;65.80;;;;;;5073307;28;20381;-63
2022/06/25 09:52:08;;;;;;;3.92;1.55;;;23.80;65.90;;;;;;5074612;28;20146;-65
2022/06/25 09:54:34;;;;;;;3.90;1.55;;;23.80;65.70;;;;;;5072831;28;20123;-62
2022/06/25 09:57:00;;;;;;;5.35;1.73;;;23.90;65.80;;;;;;5074401;28;20429;-62
2022/06/25 09:59:26;;;;;;;2.58;1.70;;;23.90;65.70;;;;;;5075075;28;20460;-62
2022/06/25 10:01:52;;;;;;;3.55;1.95;;;23.90;65.80;;;;;;5056174;28;20135;-62
2022/06/25 10:04:20;;;;;;;5.72;1.83;;;23.90;65.80;;;;;;5073320;28;20052;-63
2022/06/25 10:06:45;;;;;;;5.50;1.85;;;23.90;65.80;;;;;;5056841;28;20037;-62
2022/06/25 10:09:11;;;;;;;4.68;1.95;;;23.90;65.80;;;;;;5056040;28;20553;-61
2022/06/25 10:11:37;;;;;;;2.42;2.03;;;23.90;65.80;;;;;;5056933;28;20484;-62
2022/06/25 10:14:03;;;;;;;4.60;1.67;;;23.90;65.90;;;;;;5073766;28;20044;-62
2022/06/25 10:16:31;;;;;;;7.68;2.10;;;23.90;65.90;;;;;;5073972;28;20400;-62
2022/06/25 10:18:57;;;;;;;3.78;1.88;;;24.00;66.00;;;;;;5073961;28;20460;-62
2022/06/25 10:21:23;;;;;;;4.35;2.20;;;24.00;65.90;;;;;;5074209;28;20044;-62
2022/06/25 10:24:00;;;;;;;4.13;2.10;;;24.00;65.90;;;;;;5072184;28;20123;-62
2022/06/25 10:26:26;;;;;;;4.43;2.20;;;24.00;65.90;;;;;;5074578;28;20235;-61
2022/06/25 10:28:51;;;;;;;4.65;1.95;;;24.00;65.80;;;;;;5073574;28;20382;-62
2022/06/25 10:31:18;;;;;;;5.18;2.40;;;24.00;65.80;;;;;;5074083;28;20214;-62
2022/06/25 10:33:57;;;;;;;3.63;2.22;;;24.00;65.80;;;;;;5073956;28;20045;-62
2022/06/25 10:36:43;;;;;;;4.20;2.30;;;24.00;65.70;;;;;;5074016;28;20563;-63
2022/06/25 10:39:27;;;;;;;2.70;2.30;;;24.00;65.50;;;;;;5073987;28;20489;-63
2022/06/25 10:45:14;;;;;;;7.18;2.40;;;24.00;65.50;;;;;;5073436;28;20048;-62
2022/06/25 10:47:41;;;;;;;3.30;2.20;;;24.00;65.50;;;;;;5074920;28;20040;-62
2022/06/25 10:50:22;;;;;;;4.80;1.95;;;24.00;65.40;;;;;;5073142;28;20067;-62
2022/06/25 10:53:03;;;;;;;4.85;2.15;;;24.00;65.50;;;;;;5073370;28;20063;-62
2022/06/25 10:55:39;;;;;;;4.25;2.53;;;24.10;65.40;;;;;;5073926;28;20048;-62
2022/06/25 10:58:22;;;;;;;5.53;3.10;;;24.10;65.40;;;;;;5072019;28;20089;-61
2022/06/25 11:00:51;;;;;;;4.55;2.30;;;24.10;65.40;;;;;;5073199;28;20470;-61
2022/06/25 11:03:17;;;;;;;4.30;2.50;;;24.10;65.30;;;;;;5073910;28;20048;-62
2022/06/25 11:05:45;;;;;;;4.60;2.33;;;24.10;65.20;;;;;;5072208;28;20044;-62
2022/06/25 11:08:10;;;;;;;3.80;2.27;;;24.10;65.10;;;;;;5073759;28;20052;-62
2022/06/25 11:10:37;;;;;;;4.43;2.28;;;24.20;65.10;;;;;;5073576;28;20299;-62
2022/06/25 11:13:06;;;;;;;6.10;2.67;;;24.10;65.10;;;;;;5071493;28;20048;-62
2022/06/25 11:15:46;;;;;;;3.80;2.20;;;24.10;65.10;;;;;;5073201;28;20044;-62
2022/06/25 11:18:13;;;;;;;3.40;2.05;;;24.20;65.10;;;;;;5072713;28;20048;-62
2022/06/25 11:20:38;;;;;;;5.20;2.33;;;24.10;65.00;;;;;;5073321;28;20040;-61
2022/06/25 11:23:04;;;;;;;7.32;3.55;;;24.10;64.90;;;;;;5072712;28;20056;-61
2022/06/25 11:28:49;;;;;;;10.10;4.10;;;24.10;64.90;;;;;;5072782;28;20470;-60
2022/06/25 11:31:16;;;;;;;13.13;4.03;;;24.20;65.00;;;;;;5073092;28;20052;-60
2022/06/25 11:33:43;;;;;;;12.10;3.85;;;24.20;65.00;;;;;;5071699;28;20132;-61
2022/06/25 11:36:09;;;;;;;11.23;3.77;;;24.20;64.90;;;;;;5073227;28;20040;-63
2022/06/25 11:38:35;;;;;;;12.50;3.78;;;24.20;65.00;;;;;;5072830;28;20068;-61
2022/06/25 11:41:01;;;;;;;10.30;3.90;;;24.20;65.10;;;;;;5070822;28;20460;-65
2022/06/25 11:43:26;;;;;;;12.38;3.80;;;24.20;65.10;;;;;;5071019;28;20132;-62
2022/06/25 11:45:53;;;;;;;10.13;3.88;;;24.20;65.00;;;;;;5071644;28;20048;-61
2022/06/25 11:48:19;;;;;;;9.43;3.50;;;24.20;65.10;;;;;;5071280;28;20051;-62
2022/06/25 11:50:45;;;;;;;13.38;3.40;;;24.20;65.20;;;;;;5071874;28;20048;-61
2022/06/25 11:53:11;;;;;;;11.10;2.97;;;24.20;65.20;;;;;;5070636;28;20094;-62
2022/06/25 11:55:39;;;;;;;10.55;3.20;;;24.20;65.10;;;;;;5071083;28;20040;-62
2022/06/25 11:58:05;;;;;;;10.95;3.60;;;24.30;65.20;;;;;;5073834;28;20219;-62
2022/06/25 12:00:31;;;;;;;9.30;3.13;;;24.30;65.20;;;;;;5072419;28;20124;-61
2022/06/25 12:03:03;;;;;;;10.98;3.42;;;24.30;65.40;;;;;;5072195;28;20040;-61
2022/06/25 12:05:29;;;;;;;6.13;2.78;;;24.30;65.30;;;;;;5072741;28;20045;-61
2022/06/25 12:07:56;;;;;;;7.60;2.97;;;24.30;65.20;;;;;;5071680;28;20182;-60
2022/06/25 12:10:21;;;;;;;6.82;2.97;;;24.30;65.30;;;;;;5071010;28;20040;-61
2022/06/25 12:12:48;;;;;;;6.63;2.60;;;24.30;65.40;;;;;;5069503;28;20381;-61
2022/06/25 12:15:14;;;;;;;6.75;2.45;;;24.40;65.40;;;;;;5071898;28;20044;-60
2022/06/25 12:17:40;;;;;;;6.22;2.28;;;24.50;65.40;;;;;;5072204;28;20038;-59
2022/06/25 12:20:13;;;;;;;4.50;2.00;;;24.60;65.30;;;;;;5071025;28;20094;-61
2022/06/25 12:22:45;;;;;;;4.70;1.90;;;24.60;65.00;;;;;;5070336;28;20064;-61
2022/06/25 12:25:12;;;;;;;7.75;1.98;;;24.70;64.90;;;;;;5072741;28;20045;-60
2022/06/25 12:27:48;;;;;;;6.30;1.90;;;24.70;65.10;;;;;;5072333;28;20048;-59
2022/06/25 12:30:21;;;;;;;9.45;2.70;;;24.70;65.60;;;;;;5071507;28;20044;-59
2022/06/25 12:32:47;;;;;;;5.90;1.95;;;24.70;65.80;;;;;;5071915;28;20042;-60
2022/06/25 12:35:25;;;;;;;6.00;2.10;;;24.60;65.80;;;;;;5071731;28;20045;-59
2022/06/25 12:38:08;;;;;;;5.95;2.05;;;24.60;66.00;;;;;;5070756;28;20090;-60
2022/06/25 12:40:46;;;;;;;7.40;2.03;;;24.60;66.10;;;;;;5072752;28;20040;-60
2022/06/25 12:43:13;;;;;;;5.03;1.95;;;24.50;66.20;;;;;;5071722;28;20068;-59
2022/06/25 12:45:40;;;;;;;7.07;2.35;;;24.60;66.40;;;;;;5072094;28;20052;-59
2022/06/25 12:48:06;;;;;;;8.43;2.10;;;24.50;67.00;;;;;;5072247;28;20041;-59
2022/06/25 12:50:33;;;;;;;5.00;2.20;;;24.50;66.60;;;;;;5070861;28;20396;-59
2022/06/25 12:53:13;;;;;;;4.50;2.38;;;24.50;66.70;;;;;;5071729;28;20342;-60
2022/06/25 12:55:40;;;;;;;4.68;2.00;;;24.50;67.40;;;;;;5074888;28;20392;-60
2022/06/25 12:58:07;;;;;;;5.93;2.03;;;24.50;66.70;;;;;;5075323;28;20044;-60
2022/06/25 13:00:34;;;;;;;5.65;1.90;;;24.50;66.70;;;;;;5076094;28;20098;-61
2022/06/25 13:02:59;;;;;;;5.38;2.03;;;24.50;66.70;;;;;;5075640;28;20462;-60
2022/06/25 13:05:25;;;;;;;5.43;2.00;;;24.50;66.60;;;;;;5074982;28;20037;-61
2022/06/25 13:07:50;;;;;;;7.63;1.95;;;24.50;66.60;;;;;;5074934;28;20395;-60
2022/06/25 13:10:16;;;;;;;6.88;2.45;;;24.50;66.60;;;;;;5074875;28;20044;-59